Bowmanville, Canada
Current Conditions -  °F | °C
As of 2:00 PM on Thursday 23 Oct 2014 (Local Time) from CYOO Reporting Station
Clear Clear  
Wind Chill: 61°   Ceiling: Unl
Heat Index: 61°   Visibility: 9mi
Dew Point: 43°   Wind: 14mph
Humidity: 52%   Direction: 310°NW
Pressure: 30.06"   Gusts: 21mph
Location:  43.91°N, 78.69°W
Report Text: CYOO 231800Z AUTO 31012G18KT 9SM CLR 16/06 A3006 RMK PRESFR SLP181 DENSITY ALT 500FT
Loading
Personal Weather Stations






























Interactive Weather Map New forecast layout! Learn more

10-Day Weather Forecast

Advertisements
Track Severe Weather on mobile